Time;durP1;ratioP1;P1;durP2;ratioP2;P2;SDS_P1;SDS_P2;PMS_P1;PMS_P2;Temp;Humidity;BMP_temperature;BMP_pressure;BME280_temperature;BME280_humidity;BME280_pressure;Samples;Min_cycle;Max_cycle;Signal;HPM_P1;HPM_P2
2021/12/04 00:02:21;;;;;;;2.75;1.02;;;-0.10;93.60;;;;;;5030496;28;20049;-80
2021/12/04 00:04:49;;;;;;;2.95;1.13;;;0.00;93.60;;;;;;5029954;28;20030;-80
2021/12/04 00:07:15;;;;;;;0.93;0.75;;;0.00;93.70;;;;;;5010676;28;20099;-79
2021/12/04 00:09:45;;;;;;;1.20;0.80;;;0.00;93.60;;;;;;5012638;28;20038;-78
2021/12/04 00:12:11;;;;;;;2.67;1.13;;;0.00;93.40;;;;;;5012701;28;20018;-78
2021/12/04 00:14:37;;;;;;;3.05;1.33;;;-0.10;93.40;;;;;;5019266;28;20064;-79
2021/12/04 00:17:05;;;;;;;3.65;1.00;;;0.00;93.30;;;;;;5022519;28;20053;-79
2021/12/04 00:19:31;;;;;;;2.55;1.00;;;0.00;93.20;;;;;;5014651;28;20029;-78
2021/12/04 00:21:58;;;;;;;2.20;1.05;;;-0.10;93.10;;;;;;5032400;28;20026;-78
2021/12/04 00:24:25;;;;;;;0.82;0.80;;;-0.10;93.20;;;;;;5028811;28;20025;-79
2021/12/04 00:26:51;;;;;;;2.25;0.95;;;-0.10;93.30;;;;;;5019928;28;20028;-77
2021/12/04 00:29:18;;;;;;;1.33;0.60;;;-0.10;93.30;;;;;;5019566;28;20108;-78
2021/12/04 00:32:32;;;;;;;1.05;0.90;;;0.00;93.20;;;;;;4998484;28;20029;-78
2021/12/04 00:34:33;;;;;;;1.27;0.75;;;0.00;93.10;;;;;;5010347;28;20038;-78
2021/12/04 00:37:12;;;;;;;1.10;0.80;;;0.00;93.10;;;;;;5016604;28;20026;-78
2021/12/04 00:50:51;;;;;;;0.95;0.50;;;0.40;92.70;;;;;;4938491;29;20604;-78
2021/12/04 00:53:17;;;;;;;1.25;0.70;;;0.50;92.50;;;;;;4967742;28;20031;-79
2021/12/04 00:55:43;;;;;;;0.70;0.70;;;0.50;92.30;;;;;;4991689;28;20027;-79
2021/12/04 00:58:08;;;;;;;2.75;0.90;;;0.50;92.20;;;;;;4977690;28;20027;-78
2021/12/04 01:00:34;;;;;;;0.50;0.50;;;0.50;91.80;;;;;;5000251;28;20413;-79
2021/12/04 01:03:00;;;;;;;2.72;0.63;;;0.50;91.70;;;;;;5015102;28;20389;-79
2021/12/04 01:05:26;;;;;;;0.75;0.60;;;0.50;91.60;;;;;;4997418;28;20084;-79
2021/12/04 01:07:51;;;;;;;1.33;0.60;;;0.50;91.60;;;;;;5015327;28;20030;-78
2021/12/04 01:10:17;;;;;;;0.85;0.70;;;0.50;91.50;;;;;;5009299;28;20096;-78
2021/12/04 01:12:43;;;;;;;1.02;0.60;;;0.50;91.40;;;;;;4995569;28;20078;-79
2021/12/04 01:15:09;;;;;;;0.40;0.40;;;0.50;91.50;;;;;;5004744;28;20026;-77
2021/12/04 01:17:35;;;;;;;0.98;0.60;;;0.50;91.60;;;;;;5011016;28;20101;-78
2021/12/04 01:20:02;;;;;;;1.20;0.55;;;0.60;91.60;;;;;;5014708;28;20068;-78
2021/12/04 01:22:28;;;;;;;1.67;0.75;;;0.60;91.40;;;;;;4996735;28;20026;-79
2021/12/04 01:24:54;;;;;;;1.50;1.02;;;0.70;91.40;;;;;;4995383;28;20081;-78
2021/12/04 01:27:19;;;;;;;1.33;0.70;;;0.80;91.30;;;;;;4996075;28;20475;-78
2021/12/04 01:29:45;;;;;;;2.15;1.05;;;0.80;91.00;;;;;;5008297;28;20061;-78
2021/12/04 01:32:11;;;;;;;2.35;1.02;;;0.80;91.00;;;;;;5011355;28;20533;-77
2021/12/04 01:34:37;;;;;;;1.92;0.98;;;0.80;90.70;;;;;;5009886;28;20026;-79
2021/12/04 01:37:04;;;;;;;4.57;1.30;;;0.90;90.80;;;;;;5002812;28;20522;-78
2021/12/04 01:39:30;;;;;;;1.38;0.70;;;0.90;90.60;;;;;;5002004;28;20037;-80
2021/12/04 01:41:56;;;;;;;2.05;0.80;;;0.90;90.50;;;;;;5013519;28;20030;-79
2021/12/04 01:44:22;;;;;;;2.25;0.98;;;1.00;90.30;;;;;;5001076;28;20056;-79
2021/12/04 01:46:49;;;;;;;0.95;0.68;;;1.00;90.20;;;;;;5000699;28;20502;-78
2021/12/04 01:49:14;;;;;;;3.30;1.42;;;1.10;90.20;;;;;;4994375;28;20030;-78
2021/12/04 01:51:40;;;;;;;3.08;0.98;;;1.10;89.90;;;;;;4993911;28;20072;-79
2021/12/04 01:54:06;;;;;;;1.98;1.17;;;1.10;89.30;;;;;;4993313;28;20105;-78
2021/12/04 01:56:33;;;;;;;2.35;1.63;;;1.10;89.20;;;;;;4993715;28;20030;-77
2021/12/04 01:59:00;;;;;;;3.42;0.80;;;1.20;89.60;;;;;;4993542;28;20100;-77
2021/12/04 02:01:26;;;;;;;1.55;0.85;;;1.20;90.10;;;;;;4976807;28;20030;-78
2021/12/04 02:03:52;;;;;;;3.08;0.82;;;1.20;90.40;;;;;;5012675;28;20034;-77
2021/12/04 02:06:18;;;;;;;1.27;0.73;;;1.30;90.70;;;;;;5012613;28;20026;-77
2021/12/04 02:08:44;;;;;;;1.67;1.10;;;1.30;90.70;;;;;;5013583;28;20026;-76
2021/12/04 02:11:10;;;;;;;1.58;0.50;;;1.30;91.00;;;;;;4995376;28;20072;-77
2021/12/04 02:13:36;;;;;;;1.52;0.77;;;1.30;91.30;;;;;;4996305;28;20439;-77
2021/12/04 02:16:13;;;;;;;2.63;0.50;;;1.30;91.50;;;;;;5002868;28;20026;-76
2021/12/04 02:18:38;;;;;;;0.82;0.50;;;1.30;91.70;;;;;;4995012;28;20193;-77
2021/12/04 02:21:04;;;;;;;0.50;0.40;;;1.40;92.10;;;;;;5012974;28;20036;-77
2021/12/04 02:23:30;;;;;;;0.93;0.60;;;1.40;92.20;;;;;;4996226;28;20034;-77
2021/12/04 02:25:55;;;;;;;0.77;0.55;;;1.50;92.30;;;;;;5014311;28;20022;-76
2021/12/04 02:28:22;;;;;;;0.32;0.32;;;1.50;92.40;;;;;;5013487;28;20032;-78
2021/12/04 02:30:48;;;;;;;1.35;0.95;;;1.50;92.50;;;;;;4996003;28;20581;-77
2021/12/04 02:33:16;;;;;;;1.10;0.60;;;1.50;92.80;;;;;;4988617;28;20189;-78
2021/12/04 02:35:46;;;;;;;1.23;0.55;;;1.50;93.00;;;;;;4993233;28;20432;-77
2021/12/04 02:38:12;;;;;;;1.10;0.60;;;1.50;93.20;;;;;;4994379;28;20376;-79
2021/12/04 02:40:38;;;;;;;0.80;0.60;;;1.50;93.40;;;;;;4994684;28;20023;-76
2021/12/04 02:43:05;;;;;;;1.00;0.63;;;1.50;93.30;;;;;;4997105;28;20080;-77
2021/12/04 02:45:31;;;;;;;3.40;0.65;;;1.40;93.30;;;;;;5004875;28;20018;-77
2021/12/04 02:47:57;;;;;;;0.80;0.52;;;1.40;93.20;;;;;;5011202;28;20437;-78
2021/12/04 02:50:22;;;;;;;1.52;0.75;;;1.30;93.40;;;;;;5012298;28;20025;-77
2021/12/04 02:52:48;;;;;;;0.95;0.63;;;1.30;93.60;;;;;;5013024;28;20069;-79
2021/12/04 02:55:17;;;;;;;0.90;0.77;;;1.30;93.70;;;;;;5012064;28;20064;-77
2021/12/04 02:57:45;;;;;;;0.75;0.32;;;1.30;93.90;;;;;;5010609;28;20095;-77
2021/12/04 03:00:20;;;;;;;0.95;0.68;;;1.30;93.90;;;;;;5012322;28;20041;-79
2021/12/04 03:02:46;;;;;;;1.30;0.60;;;1.20;94.00;;;;;;5012067;28;20060;-77
2021/12/04 03:05:12;;;;;;;1.23;0.60;;;1.20;94.10;;;;;;4978978;28;20061;-78
2021/12/04 03:07:39;;;;;;;0.20;0.20;;;1.20;94.50;;;;;;4992308;28;20384;-79
2021/12/04 03:10:07;;;;;;;0.95;0.40;;;1.30;94.80;;;;;;4992479;28;20022;-77
2021/12/04 03:12:35;;;;;;;0.73;0.57;;;1.30;94.90;;;;;;4992022;28;20035;-77
2021/12/04 03:15:00;;;;;;;2.17;0.45;;;1.30;95.00;;;;;;5000685;28;20116;-78
2021/12/04 03:17:26;;;;;;;2.25;0.50;;;1.20;95.10;;;;;;5006440;28;20050;-78
2021/12/04 03:19:53;;;;;;;1.13;0.65;;;1.20;95.20;;;;;;5014266;28;20029;-78
2021/12/04 03:22:21;;;;;;;0.90;0.50;;;1.20;95.20;;;;;;5011486;28;20036;-77
2021/12/04 03:24:47;;;;;;;0.63;0.40;;;1.20;95.20;;;;;;5011434;28;20033;-77
2021/12/04 03:27:14;;;;;;;0.43;0.43;;;1.30;95.30;;;;;;4997798;28;20040;-77
2021/12/04 03:29:49;;;;;;;1.10;0.57;;;1.30;95.30;;;;;;5015532;28;20045;-78
2021/12/04 03:43:05;;;;;;;0.73;0.47;;;1.30;95.30;;;;;;4996170;28;20112;-77
2021/12/04 03:45:33;;;;;;;0.82;0.63;;;1.40;95.30;;;;;;5008496;28;20025;-78
2021/12/04 03:48:06;;;;;;;1.00;0.60;;;1.40;95.10;;;;;;5014913;28;20105;-77
2021/12/04 03:50:33;;;;;;;1.13;0.57;;;1.40;95.10;;;;;;5015787;28;20116;-78
2021/12/04 03:52:58;;;;;;;0.82;0.68;;;1.40;95.10;;;;;;5016621;28;20024;-76
2021/12/04 03:55:25;;;;;;;0.80;0.60;;;1.40;95.30;;;;;;5015575;28;20034;-77
2021/12/04 03:57:51;;;;;;;1.50;0.82;;;1.40;95.40;;;;;;5015556;28;20129;-77
2021/12/04 04:00:20;;;;;;;1.13;0.50;;;1.50;95.50;;;;;;5016328;28;20053;-77
2021/12/04 04:02:46;;;;;;;0.38;0.35;;;1.40;95.60;;;;;;5016064;28;20049;-77
2021/12/04 04:05:12;;;;;;;0.68;0.57;;;1.30;96.10;;;;;;5015839;28;20439;-77
2021/12/04 04:07:38;;;;;;;1.00;0.70;;;1.30;96.70;;;;;;5005326;28;20080;-76
2021/12/04 04:10:06;;;;;;;0.45;0.43;;;1.30;97.10;;;;;;5007412;28;20048;-77
2021/12/04 04:12:32;;;;;;;0.95;0.55;;;1.20;97.60;;;;;;5015346;28;20048;-78
2021/12/04 04:14:58;;;;;;;0.68;0.45;;;1.20;98.10;;;;;;5015201;28;20034;-78
2021/12/04 04:17:26;;;;;;;0.60;0.60;;;1.20;98.50;;;;;;5014436;28;20057;-78
2021/12/04 04:19:52;;;;;;;0.88;0.40;;;1.20;99.00;;;;;;5016354;28;20033;-78
2021/12/04 04:22:17;;;;;;;2.00;0.68;;;1.10;99.50;;;;;;5015144;28;20029;-77
2021/12/04 04:24:43;;;;;;;0.70;0.70;;;1.20;99.80;;;;;;5014716;28;20104;-78
2021/12/04 04:27:09;;;;;;;1.17;0.47;;;1.10;99.90;;;;;;5014279;28;20446;-77
2021/12/04 04:29:34;;;;;;;1.00;0.60;;;1.10;99.90;;;;;;5014653;28;20422;-77
2021/12/04 04:32:00;;;;;;;0.43;0.43;;;1.10;99.90;;;;;;5014343;28;20128;-77
2021/12/04 04:34:30;;;;;;;0.40;0.40;;;1.10;99.90;;;;;;5014394;28;20052;-78
2021/12/04 04:58:56;;;;;;;0.57;0.30;;;1.00;99.90;;;;;;5001674;28;20082;-77
2021/12/04 05:01:42;;;;;;;0.38;0.38;;;1.10;99.90;;;;;;4978934;28;20054;-77
2021/12/04 05:12:56;;;;;;;0.75;0.50;;;1.20;99.90;;;;;;4999640;28;20094;-77
2021/12/04 05:21:07;;;;;;;2.03;0.30;;;1.30;99.90;;;;;;4971455;28;20209;-77
2021/12/04 05:23:41;;;;;;;0.52;0.52;;;1.30;99.90;;;;;;4971775;28;20497;-77
2021/12/04 05:26:10;;;;;;;0.75;0.68;;;1.40;99.90;;;;;;4991991;28;20042;-78
2021/12/04 05:28:35;;;;;;;0.47;0.47;;;1.40;99.90;;;;;;5013078;28;20467;-78
2021/12/04 05:31:01;;;;;;;0.30;0.30;;;1.40;99.90;;;;;;5015389;28;20018;-79
2021/12/04 05:33:28;;;;;;;0.45;0.40;;;1.40;99.90;;;;;;5002726;28;20502;-78
2021/12/04 05:35:54;;;;;;;0.40;0.40;;;1.40;99.90;;;;;;5001006;28;20041;-79
2021/12/04 05:38:20;;;;;;;0.30;0.30;;;1.40;99.90;;;;;;5006929;28;20498;-77
2021/12/04 05:40:46;;;;;;;0.32;0.32;;;1.40;99.90;;;;;;4995274;28;20030;-78
2021/12/04 05:43:13;;;;;;;0.40;0.30;;;1.40;99.90;;;;;;5014675;28;20033;-78
2021/12/04 05:45:45;;;;;;;0.77;0.47;;;1.40;99.90;;;;;;5014428;28;20034;-78
2021/12/04 05:48:25;;;;;;;0.95;0.43;;;1.50;99.90;;;;;;5015590;28;20437;-77
2021/12/04 05:51:19;;;;;;;0.90;0.50;;;1.50;99.90;;;;;;5015274;28;20486;-78
2021/12/04 05:56:14;;;;;;;0.65;0.40;;;1.60;99.90;;;;;;4996137;28;20025;-77
2021/12/04 05:58:40;;;;;;;0.50;0.50;;;1.50;99.90;;;;;;4977456;28;20030;-78
2021/12/04 06:01:07;;;;;;;0.55;0.43;;;1.60;99.90;;;;;;5002557;28;20109;-78
2021/12/04 06:03:34;;;;;;;0.40;0.40;;;1.60;99.90;;;;;;4995722;28;20089;-77
2021/12/04 06:06:00;;;;;;;0.70;0.70;;;1.70;99.90;;;;;;4996398;28;20031;-79
2021/12/04 06:08:26;;;;;;;1.35;0.73;;;1.70;99.90;;;;;;5010804;28;20030;-80
2021/12/04 06:10:53;;;;;;;1.50;0.93;;;1.70;99.90;;;;;;5004032;28;20052;-78
2021/12/04 06:13:19;;;;;;;1.73;0.80;;;1.70;99.90;;;;;;5002227;28;20118;-77
2021/12/04 06:15:45;;;;;;;1.10;0.80;;;1.70;99.90;;;;;;5004008;28;20137;-78
2021/12/04 06:18:13;;;;;;;0.80;0.65;;;1.80;99.90;;;;;;5008713;28;20045;-77
2021/12/04 06:23:23;;;;;;;0.70;0.70;;;1.80;99.90;;;;;;5012876;28;20041;-77
2021/12/04 06:25:49;;;;;;;1.10;0.85;;;1.90;99.90;;;;;;5013549;28;20451;-78
2021/12/04 06:28:16;;;;;;;0.57;0.57;;;1.90;99.90;;;;;;5011061;28;20026;-78
2021/12/04 06:30:43;;;;;;;2.50;0.80;;;1.90;99.90;;;;;;5001863;28;20084;-78
2021/12/04 06:33:10;;;;;;;2.80;0.85;;;2.00;99.90;;;;;;4994742;28;20029;-78
2021/12/04 06:35:40;;;;;;;1.10;0.70;;;2.00;99.90;;;;;;5013328;28;20396;-78
2021/12/04 06:38:08;;;;;;;0.40;0.40;;;2.00;99.90;;;;;;5007199;28;20026;-77
2021/12/04 06:40:34;;;;;;;0.88;0.65;;;2.00;99.90;;;;;;4997459;28;20313;-78
2021/12/04 06:43:00;;;;;;;0.68;0.50;;;2.00;99.90;;;;;;4983591;28;20030;-78
2021/12/04 06:45:29;;;;;;;1.27;0.70;;;2.00;99.90;;;;;;5011965;28;20109;-78
2021/12/04 06:47:58;;;;;;;1.35;0.60;;;2.10;99.90;;;;;;4992166;28;20030;-77
2021/12/04 06:53:12;;;;;;;2.50;0.63;;;2.10;99.90;;;;;;5012305;28;20026;-78
2021/12/04 06:55:39;;;;;;;0.47;0.40;;;2.10;99.90;;;;;;5008870;28;20069;-78
2021/12/04 06:58:05;;;;;;;0.70;0.70;;;2.20;99.90;;;;;;4998278;28;20027;-78
2021/12/04 07:00:32;;;;;;;1.30;0.70;;;2.20;99.90;;;;;;5003786;28;20297;-78
2021/12/04 07:02:58;;;;;;;2.85;0.68;;;2.10;99.90;;;;;;5014156;28;20026;-78
2021/12/04 07:05:24;;;;;;;0.68;0.50;;;2.20;99.90;;;;;;5009500;28;20032;-79
2021/12/04 07:07:49;;;;;;;0.95;0.60;;;2.20;99.90;;;;;;5023378;28;20049;-78
2021/12/04 07:10:15;;;;;;;0.57;0.52;;;2.30;99.90;;;;;;5007330;28;20366;-78
2021/12/04 07:12:41;;;;;;;0.77;0.47;;;2.30;99.90;;;;;;5013921;28;20108;-77
2021/12/04 07:15:10;;;;;;;1.85;0.60;;;2.30;99.90;;;;;;5006457;28;20044;-78
2021/12/04 07:17:36;;;;;;;1.88;0.68;;;2.30;99.90;;;;;;5012630;28;20033;-79
2021/12/04 07:20:07;;;;;;;4.63;0.65;;;2.40;99.90;;;;;;5007824;28;20407;-79
2021/12/04 07:22:33;;;;;;;1.60;0.50;;;2.30;99.90;;;;;;4993349;28;20022;-76
2021/12/04 07:24:59;;;;;;;1.40;0.50;;;2.40;99.90;;;;;;4995603;28;20335;-77
2021/12/04 07:27:28;;;;;;;0.57;0.50;;;2.40;99.90;;;;;;5003656;28;20042;-77
2021/12/04 07:29:54;;;;;;;1.23;0.82;;;2.40;99.90;;;;;;4992381;28;20034;-77
2021/12/04 07:32:20;;;;;;;0.50;0.50;;;2.40;99.90;;;;;;4994206;28;20494;-77
2021/12/04 07:34:45;;;;;;;2.38;0.73;;;2.40;99.90;;;;;;5004651;28;20081;-78
2021/12/04 07:37:11;;;;;;;0.60;0.60;;;2.40;99.90;;;;;;5001543;28;20032;-77
2021/12/04 07:39:38;;;;;;;1.33;0.70;;;2.40;99.90;;;;;;4988732;28;20555;-78
2021/12/04 07:42:04;;;;;;;1.23;0.63;;;2.50;99.90;;;;;;4989768;28;20042;-77
2021/12/04 07:44:30;;;;;;;1.23;0.60;;;2.50;99.90;;;;;;4994432;28;20027;-77
2021/12/04 07:46:57;;;;;;;2.13;0.90;;;2.50;99.90;;;;;;4998812;28;20018;-78
2021/12/04 07:49:23;;;;;;;1.13;0.70;;;2.50;99.90;;;;;;5008360;28;20426;-77
2021/12/04 07:51:50;;;;;;;1.35;0.80;;;2.60;99.90;;;;;;5014903;28;20026;-76
2021/12/04 07:54:16;;;;;;;1.30;0.73;;;2.60;99.90;;;;;;4995549;28;20464;-76
2021/12/04 07:56:42;;;;;;;2.58;0.73;;;2.60;99.90;;;;;;4992107;28;20486;-77
2021/12/04 07:59:08;;;;;;;1.52;0.75;;;2.70;99.90;;;;;;4994717;28;20030;-78
2021/12/04 08:01:34;;;;;;;2.40;0.63;;;2.80;99.90;;;;;;5011719;28;20033;-78
2021/12/04 08:04:00;;;;;;;1.63;1.15;;;2.80;99.90;;;;;;4955456;28;20483;-77
2021/12/04 08:06:26;;;;;;;1.20;0.60;;;2.90;99.90;;;;;;4996672;28;20090;-77
2021/12/04 08:08:58;;;;;;;2.20;0.70;;;2.90;99.90;;;;;;5001252;28;20066;-78
2021/12/04 08:11:25;;;;;;;1.45;0.70;;;3.00;99.90;;;;;;5011886;28;20109;-78
2021/12/04 08:13:51;;;;;;;0.95;0.75;;;3.00;99.90;;;;;;5005699;28;20030;-78
2021/12/04 08:16:18;;;;;;;1.60;0.70;;;3.10;99.90;;;;;;5009518;28;20033;-78
2021/12/04 08:18:44;;;;;;;2.53;0.90;;;3.10;99.90;;;;;;4995920;28;20371;-77
2021/12/04 08:21:10;;;;;;;1.95;0.95;;;3.10;99.90;;;;;;5002395;28;20021;-77
2021/12/04 08:23:36;;;;;;;1.10;0.63;;;3.20;99.90;;;;;;5015629;28;20038;-78
2021/12/04 08:26:02;;;;;;;0.82;0.70;;;3.20;99.90;;;;;;4994291;28;20069;-79
2021/12/04 08:28:27;;;;;;;2.58;1.02;;;3.30;99.90;;;;;;4997692;28;20030;-78
2021/12/04 08:30:53;;;;;;;0.85;0.63;;;3.30;99.90;;;;;;4999894;28;20076;-78
2021/12/04 08:33:19;;;;;;;1.63;0.77;;;3.40;99.90;;;;;;4990007;28;20382;-78
2021/12/04 08:35:45;;;;;;;1.23;0.88;;;3.50;99.90;;;;;;4997300;28;20061;-77
2021/12/04 08:38:16;;;;;;;3.65;0.68;;;3.50;99.90;;;;;;5007849;28;20075;-77
2021/12/04 08:40:43;;;;;;;1.85;0.70;;;3.60;99.90;;;;;;5010676;28;20052;-78
2021/12/04 08:43:10;;;;;;;1.23;0.80;;;3.70;99.90;;;;;;5013688;28;20419;-78
2021/12/04 08:45:36;;;;;;;1.55;0.93;;;3.70;99.90;;;;;;5014050;28;20389;-78
2021/12/04 08:48:02;;;;;;;1.65;0.73;;;3.80;99.90;;;;;;5005236;28;20022;-77
2021/12/04 08:50:31;;;;;;;0.73;0.68;;;3.80;99.90;;;;;;4976825;28;20472;-77
2021/12/04 08:52:59;;;;;;;2.28;1.27;;;3.90;99.90;;;;;;4994952;28;20124;-78
2021/12/04 08:55:27;;;;;;;2.83;1.17;;;3.90;99.90;;;;;;4995204;28;20124;-77
2021/12/04 08:57:53;;;;;;;1.00;0.70;;;3.90;99.90;;;;;;4995219;28;20221;-77
2021/12/04 09:00:35;;;;;;;0.88;0.88;;;3.90;99.90;;;;;;4979717;28;20030;-78
2021/12/04 09:03:02;;;;;;;0.75;0.75;;;4.00;99.90;;;;;;4979343;28;20093;-79
2021/12/04 09:05:29;;;;;;;2.10;0.77;;;4.00;99.90;;;;;;4996571;28;20117;-78
2021/12/04 09:07:54;;;;;;;2.67;1.05;;;4.00;99.90;;;;;;4982669;28;20054;-78
2021/12/04 09:10:21;;;;;;;1.38;0.85;;;4.10;99.90;;;;;;5003534;28;20026;-78
2021/12/04 09:12:48;;;;;;;2.22;1.30;;;4.10;99.90;;;;;;4998087;28;20026;-79
2021/12/04 09:15:17;;;;;;;1.08;0.82;;;4.20;99.90;;;;;;5009432;28;20423;-79
2021/12/04 09:17:43;;;;;;;2.08;1.25;;;4.30;99.90;;;;;;4988801;28;20490;-78
2021/12/04 09:20:12;;;;;;;3.50;1.65;;;4.30;99.90;;;;;;4996495;28;20045;-78
2021/12/04 09:22:38;;;;;;;3.08;0.90;;;4.30;99.90;;;;;;5004894;28;20076;-79
2021/12/04 09:25:11;;;;;;;2.65;0.88;;;4.40;99.90;;;;;;4999094;28;20466;-77
2021/12/04 09:30:18;;;;;;;4.05;1.27;;;4.50;99.90;;;;;;5014287;28;20078;-78
2021/12/04 09:35:32;;;;;;;2.45;1.30;;;4.60;99.90;;;;;;4997397;28;20026;-79
2021/12/04 10:02:36;;;;;;;3.33;1.08;;;5.50;99.90;;;;;;5015301;28;20057;-79
2021/12/04 10:35:06;;;;;;;1.17;0.82;;;5.90;99.90;;;;;;4998503;28;20030;-80
2021/12/04 10:37:32;;;;;;;1.27;1.00;;;6.10;99.90;;;;;;4993481;28;20077;-79
2021/12/04 10:40:06;;;;;;;1.60;1.20;;;6.30;99.90;;;;;;5006489;28;20076;-80
2021/12/04 10:42:51;;;;;;;1.65;1.23;;;6.60;99.90;;;;;;5011626;28;20030;-79
2021/12/04 10:45:18;;;;;;;3.60;1.48;;;6.60;99.90;;;;;;5018304;28;20029;-78
2021/12/04 10:47:58;;;;;;;3.10;1.63;;;6.80;99.90;;;;;;5018362;28;20022;-78
2021/12/04 10:53:01;;;;;;;1.20;0.95;;;6.90;99.90;;;;;;5018102;28;20018;-79
2021/12/04 11:03:38;;;;;;;1.75;0.82;;;7.00;99.90;;;;;;5006107;28;20306;-79
2021/12/04 11:36:22;;;;;;;1.38;1.27;;;7.40;99.90;;;;;;5003768;28;20040;-77
2021/12/04 11:46:42;;;;;;;1.40;1.10;;;7.70;99.90;;;;;;5020407;28;20076;-77
2021/12/04 11:49:14;;;;;;;1.42;1.10;;;7.70;99.90;;;;;;5003585;28;20038;-78
2021/12/04 11:51:47;;;;;;;1.92;1.40;;;7.80;99.90;;;;;;5002594;28;20018;-77
2021/12/04 11:54:13;;;;;;;2.45;1.60;;;7.80;99.90;;;;;;5010062;28;20032;-81
2021/12/04 11:56:39;;;;;;;2.90;1.98;;;7.80;99.90;;;;;;5004103;28;20041;-79
2021/12/04 11:59:05;;;;;;;1.65;1.30;;;7.90;99.90;;;;;;5006806;28;20053;-78
2021/12/04 12:01:33;;;;;;;2.08;1.60;;;7.90;99.90;;;;;;4993348;28;20041;-79
2021/12/04 12:04:12;;;;;;;2.05;1.42;;;7.90;99.90;;;;;;5010382;28;20026;-78
2021/12/04 12:07:15;;;;;;;1.40;1.27;;;7.90;99.90;;;;;;5025209;28;20033;-78
2021/12/04 12:09:41;;;;;;;2.40;2.15;;;7.90;99.90;;;;;;4978399;28;20034;-79
2021/12/04 12:12:11;;;;;;;3.60;2.10;;;7.90;99.90;;;;;;5011644;28;20063;-78
2021/12/04 12:14:46;;;;;;;1.58;1.35;;;7.90;99.90;;;;;;5010967;28;20026;-79
2021/12/04 12:17:13;;;;;;;1.88;1.50;;;8.00;99.90;;;;;;5012940;28;20103;-78
2021/12/04 12:19:49;;;;;;;1.17;1.08;;;8.00;99.90;;;;;;5013953;28;20018;-78
2021/12/04 12:22:36;;;;;;;3.20;1.60;;;7.90;99.90;;;;;;4995069;28;20167;-78
2021/12/04 12:25:23;;;;;;;2.45;1.33;;;8.00;99.90;;;;;;5010683;28;20095;-78
2021/12/04 12:36:25;;;;;;;1.23;0.90;;;;;;;;;;4989021;28;20038;-78
2021/12/04 12:38:54;;;;;;;1.13;0.85;;;8.40;99.90;;;;;;5010104;28;20034;-79
2021/12/04 12:41:40;;;;;;;1.20;0.80;;;8.40;99.90;;;;;;5012926;28;20041;-78
2021/12/04 12:44:17;;;;;;;1.25;1.00;;;8.40;99.90;;;;;;5013092;28;20027;-78
2021/12/04 12:46:57;;;;;;;1.85;0.75;;;8.30;99.90;;;;;;5011133;28;20029;-79
2021/12/04 12:49:26;;;;;;;1.73;0.80;;;8.30;99.90;;;;;;5020387;28;20037;-79
2021/12/04 12:52:04;;;;;;;3.25;0.88;;;8.30;99.90;;;;;;5002413;28;20329;-79
2021/12/04 12:54:37;;;;;;;2.05;0.90;;;8.30;99.90;;;;;;5012001;28;20388;-79
2021/12/04 12:57:09;;;;;;;1.15;0.90;;;8.50;99.90;;;;;;5001304;28;20117;-79
2021/12/04 13:13:51;;;;;;;3.55;2.40;;;8.90;99.90;;;;;;4999572;28;20037;-79
2021/12/04 13:16:21;;;;;;;2.70;1.50;;;8.90;99.90;;;;;;5013569;28;20088;-78
2021/12/04 13:18:57;;;;;;;2.67;1.00;;;8.80;99.90;;;;;;5023510;28;20101;-78
2021/12/04 13:21:25;;;;;;;2.03;0.85;;;8.70;99.90;;;;;;5026716;28;20092;-78
2021/12/04 13:23:54;;;;;;;2.60;1.15;;;8.60;99.90;;;;;;5005641;28;20347;-79
2021/12/04 13:26:29;;;;;;;1.35;1.00;;;8.60;99.90;;;;;;4990975;28;20025;-79
2021/12/04 13:28:58;;;;;;;1.67;0.60;;;8.50;99.90;;;;;;5013262;28;20030;-78
2021/12/04 13:31:24;;;;;;;2.42;0.95;;;8.60;99.90;;;;;;5016195;28;20525;-79
2021/12/04 13:33:52;;;;;;;1.92;1.05;;;8.60;99.90;;;;;;4999039;28;20038;-79
2021/12/04 13:36:24;;;;;;;1.95;1.08;;;8.60;99.90;;;;;;4999101;28;20026;-79
2021/12/04 13:38:57;;;;;;;;;;;8.60;99.90;;;;;;5007364;28;20053;-79
2021/12/04 13:41:23;;;;;;;2.33;1.30;;;8.70;99.90;;;;;;4998570;28;19906;-78
2021/12/04 13:43:56;;;;;;;3.20;1.35;;;8.70;99.90;;;;;;5023192;28;20034;-79
2021/12/04 13:46:23;;;;;;;1.67;0.82;;;8.70;99.90;;;;;;5028957;28;20025;-79
2021/12/04 13:48:51;;;;;;;1.52;0.70;;;8.80;99.90;;;;;;5009012;28;20049;-80
2021/12/04 13:51:17;;;;;;;1.25;0.80;;;8.80;99.90;;;;;;5023961;28;20026;-79
2021/12/04 13:53:46;;;;;;;1.15;0.77;;;8.80;99.90;;;;;;5011719;28;20102;-78
2021/12/04 13:56:17;;;;;;;1.02;0.60;;;8.90;99.90;;;;;;5014605;28;20026;-79
2021/12/04 13:58:57;;;;;;;0.90;0.53;;;8.90;99.90;;;;;;5024476;28;20025;-79
2021/12/04 14:01:25;;;;;;;0.88;0.77;;;8.90;99.90;;;;;;5025444;28;20457;-79
2021/12/04 14:04:00;;;;;;;1.33;0.65;;;8.90;99.90;;;;;;5009448;28;20025;-79
2021/12/04 14:06:27;;;;;;;1.40;0.63;;;8.90;99.90;;;;;;5031352;28;20022;-80
2021/12/04 14:09:03;;;;;;;1.05;0.68;;;8.90;99.90;;;;;;5007326;28;20022;-80
2021/12/04 14:11:38;;;;;;;0.52;0.47;;;8.90;99.90;;;;;;5020056;28;20117;-78
2021/12/04 14:14:13;;;;;;;1.17;0.47;;;8.90;99.90;;;;;;5008812;28;20061;-79
2021/12/04 14:16:40;;;;;;;1.10;0.85;;;8.80;99.90;;;;;;5024353;28;20096;-79
2021/12/04 14:19:20;;;;;;;1.08;0.63;;;8.80;99.90;;;;;;5026532;28;20033;-78
2021/12/04 14:22:14;;;;;;;1.85;0.60;;;8.70;99.90;;;;;;5013857;28;20022;-79
2021/12/04 14:24:47;;;;;;;0.70;0.52;;;8.70;99.90;;;;;;5018093;28;20038;-79
2021/12/04 14:27:22;;;;;;;0.82;0.75;;;8.70;99.90;;;;;;4994117;28;20033;-79
2021/12/04 14:29:54;;;;;;;1.02;0.88;;;8.60;99.90;;;;;;5007912;28;20037;-79
2021/12/04 14:32:25;;;;;;;7.15;2.97;;;8.60;99.90;;;;;;5007296;28;20057;-79
2021/12/04 14:35:01;;;;;;;1.23;0.77;;;8.60;99.90;;;;;;5007460;28;20026;-79
2021/12/04 14:37:31;;;;;;;6.45;2.47;;;8.60;99.90;;;;;;4990924;28;20033;-79
2021/12/04 14:39:57;;;;;;;9.48;3.55;;;8.60;99.90;;;;;;5015552;28;20131;-79
2021/12/04 14:42:27;;;;;;;11.38;3.80;;;8.50;99.90;;;;;;4999870;28;20033;-79
2021/12/04 14:44:54;;;;;;;12.43;5.20;;;8.50;99.90;;;;;;5026589;28;20018;-79
2021/12/04 14:47:22;;;;;;;1.40;1.00;;;8.50;99.90;;;;;;5025865;28;20032;-80
2021/12/04 14:49:51;;;;;;;5.80;2.40;;;8.50;99.90;;;;;;4991183;28;20062;-79
2021/12/04 14:52:23;;;;;;;2.13;1.30;;;8.40;99.90;;;;;;5006501;28;20030;-80
2021/12/04 14:54:50;;;;;;;1.85;1.25;;;8.40;99.90;;;;;;5006039;28;20061;-79
2021/12/04 14:57:22;;;;;;;2.20;0.98;;;8.40;99.90;;;;;;5006216;28;20038;-79
2021/12/04 15:00:08;;;;;;;;;;;8.30;99.90;;;;;;5007114;28;20022;-79
2021/12/04 15:02:34;;;;;;;1.55;0.95;;;8.30;99.90;;;;;;4998617;28;19925;-78
2021/12/04 15:05:00;;;;;;;1.38;1.08;;;8.20;99.90;;;;;;5000388;28;20033;-78
2021/12/04 15:07:31;;;;;;;2.63;1.23;;;8.10;99.90;;;;;;5002128;28;20019;-78
2021/12/04 15:09:57;;;;;;;5.03;1.88;;;8.00;99.90;;;;;;4992731;28;20026;-78
2021/12/04 15:12:31;;;;;;;1.55;0.60;;;7.90;99.90;;;;;;5005107;28;20026;-77
2021/12/04 15:15:02;;;;;;;3.83;2.50;;;7.90;99.90;;;;;;5003071;28;20042;-78
2021/12/04 15:17:28;;;;;;;2.45;1.23;;;7.80;99.90;;;;;;4985922;28;20057;-78
2021/12/04 15:20:09;;;;;;;3.05;1.13;;;7.70;99.90;;;;;;4984221;28;20469;-78
2021/12/04 15:22:41;;;;;;;1.65;0.90;;;7.60;99.90;;;;;;4994652;28;20651;-78
2021/12/04 15:25:13;;;;;;;2.03;0.90;;;7.50;99.90;;;;;;5024157;28;20398;-78
2021/12/04 15:27:39;;;;;;;2.05;1.00;;;7.30;99.90;;;;;;5024231;28;20157;-78
2021/12/04 15:30:10;;;;;;;2.25;1.23;;;7.30;99.90;;;;;;5021684;28;20065;-79
2021/12/04 15:32:39;;;;;;;2.55;1.10;;;7.20;99.90;;;;;;5023391;28;20037;-79
2021/12/04 15:38:21;;;;;;;1.45;0.90;;;7.20;99.90;;;;;;5009156;28;20052;-79
2021/12/04 15:41:11;;;;;;;1.38;1.10;;;7.20;99.90;;;;;;5018660;28;20563;-78
2021/12/04 15:54:25;;;;;;;2.65;0.77;;;7.20;99.90;;;;;;5016397;28;20143;-81
2021/12/04 15:56:56;;;;;;;1.92;1.25;;;7.10;99.90;;;;;;5010011;28;20022;-79
2021/12/04 15:59:28;;;;;;;1.67;0.80;;;7.10;99.90;;;;;;5007934;28;20026;-78
2021/12/04 16:01:57;;;;;;;4.85;2.35;;;7.00;99.90;;;;;;4993189;28;20022;-79
2021/12/04 16:04:31;;;;;;;9.25;4.07;;;7.00;99.90;;;;;;5008883;28;20041;-79
2021/12/04 16:07:00;;;;;;;2.47;1.70;;;7.00;99.90;;;;;;5008582;28;20083;-80
2021/12/04 16:09:38;;;;;;;1.42;1.33;;;6.90;99.90;;;;;;5014377;28;20032;-79
2021/12/04 16:12:06;;;;;;;0.77;0.52;;;6.90;99.90;;;;;;5010615;28;20029;-79
2021/12/04 16:14:36;;;;;;;0.63;0.63;;;6.90;99.90;;;;;;5028146;28;20034;-78
2021/12/04 16:17:03;;;;;;;0.60;0.50;;;6.80;99.90;;;;;;5025331;28;20025;-77
2021/12/04 16:19:33;;;;;;;1.00;0.70;;;6.90;99.90;;;;;;5003663;28;20042;-78
2021/12/04 16:22:07;;;;;;;2.03;1.38;;;6.80;99.90;;;;;;5017664;28;20037;-78
2021/12/04 16:24:35;;;;;;;1.05;0.95;;;6.80;99.90;;;;;;5001580;28;20027;-78
2021/12/04 16:27:11;;;;;;;2.00;1.55;;;6.90;99.90;;;;;;5003806;28;20031;-78
2021/12/04 16:29:40;;;;;;;1.50;1.40;;;6.90;99.90;;;;;;4999860;28;20030;-78
2021/12/04 16:32:34;;;;;;;2.80;1.17;;;6.80;99.90;;;;;;5002584;28;20019;-79
2021/12/04 16:37:55;;;;;;;4.70;2.92;;;6.80;99.90;;;;;;4993543;28;20056;-79
2021/12/04 16:40:22;;;;;;;6.25;4.70;;;6.90;99.90;;;;;;4992534;28;20050;-79
2021/12/04 16:42:51;;;;;;;4.25;3.85;;;6.90;99.90;;;;;;4991089;28;20068;-79